Time;durP1;ratioP1;P1;durP2;ratioP2;P2;SDS_P1;SDS_P2;PMS_P1;PMS_P2;Temp;Humidity;BMP_temperature;BMP_pressure;BME280_temperature;BME280_humidity;BME280_pressure;Samples;Min_cycle;Max_cycle;Signal;HPM_P1;HPM_P2
2022/03/30 00:00:49;;;;;;;40.93;13.67;;;5.80;97.30;;;;;;4991167;28;20253;-87
2022/03/30 00:03:15;;;;;;;39.70;14.37;;;5.70;97.30;;;;;;4990875;28;20816;-88
2022/03/30 00:05:41;;;;;;;38.13;13.90;;;5.70;97.30;;;;;;4987475;28;20181;-87
2022/03/30 00:08:07;;;;;;;32.70;14.17;;;5.70;97.30;;;;;;5001631;28;20184;-87
2022/03/30 00:10:33;;;;;;;39.67;14.70;;;5.70;97.30;;;;;;4998626;28;20416;-88
2022/03/30 00:13:00;;;;;;;40.43;14.20;;;5.70;97.30;;;;;;5010256;28;20408;-88
2022/03/30 00:15:26;;;;;;;37.63;14.37;;;5.70;97.30;;;;;;4996861;28;20534;-88
2022/03/30 00:17:52;;;;;;;43.00;13.80;;;5.70;97.30;;;;;;4997721;28;20436;-87
2022/03/30 00:20:18;;;;;;;41.83;15.53;;;5.70;97.30;;;;;;4992228;28;20830;-87
2022/03/30 00:22:44;;;;;;;42.40;15.60;;;5.60;97.30;;;;;;5002294;28;20200;-88
2022/03/30 00:25:11;;;;;;;38.40;14.03;;;5.60;97.30;;;;;;5010232;28;20455;-88
2022/03/30 00:27:38;;;;;;;34.00;12.17;;;5.60;97.30;;;;;;5009849;28;20268;-88
2022/03/30 00:30:05;;;;;;;41.13;13.60;;;5.60;97.30;;;;;;5009969;28;20436;-88
2022/03/30 00:32:31;;;;;;;44.37;13.87;;;5.60;97.30;;;;;;5009866;28;20833;-88
2022/03/30 00:34:56;;;;;;;28.17;10.83;;;5.50;97.30;;;;;;5009603;28;22308;-88
2022/03/30 00:37:22;;;;;;;36.10;12.30;;;5.50;97.30;;;;;;5009945;28;20763;-86
2022/03/30 00:39:48;;;;;;;36.60;12.53;;;5.40;97.30;;;;;;5010183;28;20449;-86
2022/03/30 00:42:19;;;;;;;35.60;12.00;;;5.40;97.30;;;;;;5009485;28;20268;-87
2022/03/30 00:44:46;;;;;;;37.27;12.00;;;5.40;97.30;;;;;;5001515;28;20181;-87
2022/03/30 00:47:32;;;;;;;39.70;13.73;;;5.40;97.30;;;;;;4990008;28;20491;-87
2022/03/30 00:49:58;;;;;;;38.20;12.47;;;5.30;97.30;;;;;;4989512;28;20449;-87
2022/03/30 00:52:23;;;;;;;41.37;12.90;;;5.30;97.30;;;;;;4989649;28;20425;-87
2022/03/30 00:54:51;;;;;;;43.87;13.73;;;5.20;97.30;;;;;;4990079;28;20713;-88
2022/03/30 00:57:21;;;;;;;40.67;14.73;;;5.20;97.30;;;;;;4989914;28;20268;-87
2022/03/30 00:59:47;;;;;;;30.10;12.20;;;5.10;97.30;;;;;;4990368;28;20491;-88
2022/03/30 01:02:14;;;;;;;37.77;13.93;;;5.10;97.30;;;;;;4990081;28;20412;-87
2022/03/30 01:04:39;;;;;;;28.17;10.50;;;5.00;97.30;;;;;;4990103;28;20420;-87
2022/03/30 01:07:05;;;;;;;32.60;11.07;;;5.00;97.30;;;;;;4989658;28;20739;-88
2022/03/30 01:09:31;;;;;;;32.07;11.03;;;4.90;97.30;;;;;;4989614;28;20201;-88
2022/03/30 01:11:57;;;;;;;32.47;10.80;;;4.90;97.30;;;;;;4989325;28;20410;-87
2022/03/30 01:14:23;;;;;;;31.80;11.00;;;4.90;97.30;;;;;;4997144;28;20243;-88
2022/03/30 01:16:54;;;;;;;24.70;9.83;;;4.90;97.30;;;;;;5014855;28;20205;-89
2022/03/30 01:19:21;;;;;;;26.23;10.00;;;4.90;97.30;;;;;;5026012;28;21000;-89
2022/03/30 01:21:46;;;;;;;25.13;8.87;;;4.90;97.30;;;;;;5007233;28;20773;-89
2022/03/30 01:24:13;;;;;;;20.87;8.80;;;4.80;97.30;;;;;;4989301;28;20413;-89
2022/03/30 01:26:41;;;;;;;25.20;8.67;;;4.80;97.30;;;;;;4988611;28;20178;-90
2022/03/30 01:32:25;;;;;;;29.10;9.50;;;4.80;97.30;;;;;;4988929;28;20449;-90
2022/03/30 01:34:42;;;;;;;16.67;6.63;;;4.80;97.30;;;;;;4990609;28;20421;-89
2022/03/30 01:37:08;;;;;;;13.70;6.37;;;4.80;97.30;;;;;;4989233;28;20950;-90
2022/03/30 01:39:34;;;;;;;20.10;7.30;;;4.80;97.30;;;;;;4990832;28;20433;-89
2022/03/30 01:42:00;;;;;;;22.40;7.23;;;4.80;97.30;;;;;;4989098;28;20989;-89
2022/03/30 01:44:25;;;;;;;20.70;6.17;;;4.80;97.30;;;;;;4989042;28;20182;-90
2022/03/30 01:46:52;;;;;;;13.73;6.00;;;4.80;97.30;;;;;;4988916;28;20182;-89
2022/03/30 01:49:21;;;;;;;15.90;5.00;;;4.70;97.30;;;;;;4989219;28;20397;-90
2022/03/30 01:51:48;;;;;;;16.80;6.77;;;4.70;97.30;;;;;;4988830;28;20449;-88
2022/03/30 01:54:16;;;;;;;14.30;4.90;;;4.70;97.30;;;;;;5005366;28;20428;-89
2022/03/30 01:56:41;;;;;;;12.30;4.53;;;4.80;97.30;;;;;;5005866;28;20675;-89
2022/03/30 01:59:07;;;;;;;16.50;5.03;;;4.80;97.30;;;;;;4988660;28;20437;-90
2022/03/30 02:01:32;;;;;;;13.13;6.40;;;4.80;97.30;;;;;;4988962;28;20174;-89
2022/03/30 02:03:58;;;;;;;14.43;4.60;;;4.80;97.30;;;;;;4988694;28;20189;-89
2022/03/30 02:06:25;;;;;;;9.60;4.40;;;4.80;97.30;;;;;;4988907;28;20696;-88
2022/03/30 02:08:50;;;;;;;17.13;4.60;;;4.80;97.30;;;;;;4988788;28;20443;-89
2022/03/30 02:11:16;;;;;;;7.90;4.50;;;4.80;97.30;;;;;;4990079;28;20409;-89
2022/03/30 02:13:42;;;;;;;14.90;5.30;;;4.80;97.30;;;;;;4989433;28;20320;-90
2022/03/30 02:16:07;;;;;;;16.27;5.77;;;4.80;97.30;;;;;;5008179;28;20520;-89
2022/03/30 02:18:34;;;;;;;13.57;5.63;;;4.80;97.30;;;;;;5007706;28;20244;-89
2022/03/30 02:21:00;;;;;;;17.83;6.33;;;4.80;97.30;;;;;;5007873;28;20177;-89
2022/03/30 02:23:26;;;;;;;17.17;5.50;;;4.80;97.30;;;;;;5009100;28;20466;-89
2022/03/30 02:25:51;;;;;;;13.80;5.63;;;4.80;97.30;;;;;;5009963;28;20739;-89
2022/03/30 02:28:17;;;;;;;23.37;6.73;;;4.80;97.30;;;;;;5007753;28;20205;-89
2022/03/30 02:30:43;;;;;;;19.53;7.80;;;4.80;97.30;;;;;;5007858;28;20189;-90
2022/03/30 02:33:08;;;;;;;24.33;7.20;;;4.80;97.30;;;;;;5007933;28;20224;-90
2022/03/30 02:35:34;;;;;;;24.33;7.53;;;4.80;97.30;;;;;;5007862;28;20643;-89
2022/03/30 02:37:59;;;;;;;20.47;8.00;;;4.80;97.30;;;;;;5011443;28;20259;-89
2022/03/30 02:40:25;;;;;;;24.57;8.50;;;4.90;97.30;;;;;;5014444;28;20180;-89
2022/03/30 02:42:50;;;;;;;22.87;8.50;;;4.90;97.30;;;;;;5014612;28;20181;-89
2022/03/30 02:45:16;;;;;;;20.33;7.37;;;4.90;97.30;;;;;;5014305;28;20187;-89
2022/03/30 02:50:26;;;;;;;22.17;8.00;;;4.90;97.30;;;;;;4988262;28;20196;-89
2022/03/30 02:52:51;;;;;;;25.53;7.77;;;4.90;97.30;;;;;;4996015;28;20416;-89
2022/03/30 02:55:17;;;;;;;19.20;7.20;;;4.90;97.30;;;;;;5010959;28;20229;-89
2022/03/30 02:57:42;;;;;;;19.40;6.90;;;4.90;97.30;;;;;;4994729;28;20182;-90
2022/03/30 03:00:08;;;;;;;16.33;6.70;;;4.80;97.30;;;;;;5010807;28;20200;-91
2022/03/30 03:02:35;;;;;;;16.10;6.40;;;4.80;97.30;;;;;;5010837;28;20208;-88
2022/03/30 03:05:03;;;;;;;17.63;5.30;;;4.80;97.30;;;;;;4995820;28;20412;-89
2022/03/30 03:07:29;;;;;;;20.07;7.27;;;4.70;97.30;;;;;;5011275;28;20474;-89
2022/03/30 03:09:54;;;;;;;28.60;6.83;;;4.70;97.30;;;;;;5010877;28;20811;-89
2022/03/30 03:12:21;;;;;;;18.00;6.60;;;4.70;97.30;;;;;;5010896;28;20178;-89
2022/03/30 03:14:46;;;;;;;25.53;6.60;;;4.70;97.30;;;;;;5020548;28;20181;-89
2022/03/30 03:17:12;;;;;;;22.80;6.47;;;4.70;97.30;;;;;;5015562;28;20423;-90
2022/03/30 03:19:37;;;;;;;31.07;6.60;;;4.70;97.30;;;;;;5013972;28;20239;-90
2022/03/30 03:22:04;;;;;;;13.97;5.60;;;4.70;97.30;;;;;;5014120;28;20393;-90
2022/03/30 03:24:29;;;;;;;21.63;4.20;;;4.70;97.30;;;;;;5013836;28;20181;-89
2022/03/30 03:26:55;;;;;;;16.73;6.03;;;4.70;97.30;;;;;;5013950;28;20435;-89
2022/03/30 03:29:20;;;;;;;12.20;5.70;;;4.70;97.30;;;;;;5013963;28;20203;-89
2022/03/30 03:31:46;;;;;;;18.37;7.03;;;4.60;97.30;;;;;;5014013;28;20263;-89
2022/03/30 03:34:12;;;;;;;13.20;5.47;;;4.70;97.30;;;;;;5014243;28;20180;-89
2022/03/30 03:36:37;;;;;;;19.40;5.20;;;4.60;97.30;;;;;;5014398;28;20277;-89
2022/03/30 03:39:03;;;;;;;19.03;4.20;;;4.60;97.30;;;;;;5013754;28;20510;-89
2022/03/30 03:41:28;;;;;;;11.90;4.53;;;4.60;97.30;;;;;;5014218;28;20624;-88
2022/03/30 03:43:54;;;;;;;20.17;5.03;;;4.60;97.30;;;;;;5013770;28;20621;-89
2022/03/30 03:46:19;;;;;;;14.60;5.13;;;4.60;97.30;;;;;;5014332;28;20188;-89
2022/03/30 03:48:45;;;;;;;11.33;4.43;;;4.60;97.30;;;;;;5013215;28;20197;-89
2022/03/30 03:51:10;;;;;;;17.80;5.47;;;4.50;97.30;;;;;;5010688;28;20616;-89
2022/03/30 03:53:36;;;;;;;14.47;4.70;;;4.50;97.30;;;;;;5010569;28;20185;-89
2022/03/30 03:56:03;;;;;;;15.00;5.57;;;4.60;97.30;;;;;;5011589;28;20711;-89
2022/03/30 03:58:28;;;;;;;14.13;5.37;;;4.60;97.30;;;;;;5012078;28;20192;-89
2022/03/30 04:00:54;;;;;;;20.33;4.53;;;4.60;97.30;;;;;;5010372;28;20482;-89
2022/03/30 04:03:19;;;;;;;19.00;5.10;;;4.60;97.30;;;;;;5010633;28;20182;-89
2022/03/30 04:05:45;;;;;;;16.90;4.87;;;4.60;97.30;;;;;;5010349;28;20247;-89
2022/03/30 04:08:10;;;;;;;15.57;4.10;;;4.60;97.30;;;;;;5010019;28;20181;-89
2022/03/30 04:10:36;;;;;;;17.47;6.37;;;4.60;97.30;;;;;;5010215;28;20181;-89
2022/03/30 04:13:06;;;;;;;13.57;4.70;;;4.60;97.30;;;;;;5010345;28;20672;-88
2022/03/30 04:15:32;;;;;;;12.07;4.90;;;4.70;97.30;;;;;;5011419;28;20482;-88
2022/03/30 04:17:58;;;;;;;12.03;4.77;;;4.60;97.30;;;;;;5007443;28;20421;-88
2022/03/30 04:20:23;;;;;;;12.47;5.07;;;4.70;97.30;;;;;;4988428;28;20497;-88
2022/03/30 04:22:49;;;;;;;23.40;6.03;;;4.70;97.30;;;;;;4983975;28;20285;-88
2022/03/30 04:25:14;;;;;;;16.03;4.67;;;4.70;97.30;;;;;;4990793;28;20265;-89
2022/03/30 04:27:48;;;;;;;11.73;4.73;;;4.70;97.30;;;;;;4990496;28;20641;-89
2022/03/30 04:30:14;;;;;;;10.23;5.30;;;4.70;97.30;;;;;;5006989;28;20202;-88
2022/03/30 04:32:41;;;;;;;9.17;4.40;;;4.70;97.30;;;;;;5006923;28;21017;-88
2022/03/30 04:35:07;;;;;;;13.13;5.23;;;4.70;97.30;;;;;;4991395;28;20460;-88
2022/03/30 04:37:32;;;;;;;13.90;5.57;;;4.70;97.30;;;;;;5006535;28;20474;-89
2022/03/30 04:39:58;;;;;;;12.80;5.30;;;4.60;97.30;;;;;;5006400;28;20802;-89
2022/03/30 04:42:23;;;;;;;13.80;5.20;;;4.60;97.30;;;;;;4990361;28;20182;-88
2022/03/30 04:44:49;;;;;;;19.47;5.40;;;4.60;97.30;;;;;;5006396;28;20653;-88
2022/03/30 04:47:15;;;;;;;10.20;4.67;;;4.60;97.30;;;;;;5006529;28;20197;-89
2022/03/30 04:49:41;;;;;;;12.27;4.57;;;4.60;97.30;;;;;;5006550;28;20190;-88
2022/03/30 04:52:07;;;;;;;10.87;4.80;;;4.60;97.30;;;;;;5006290;28;20456;-88
2022/03/30 04:54:33;;;;;;;9.20;5.00;;;4.60;97.30;;;;;;5005912;28;20185;-89
2022/03/30 04:56:58;;;;;;;10.70;4.80;;;4.50;97.30;;;;;;5006129;28;20465;-89
2022/03/30 04:59:24;;;;;;;11.80;4.10;;;4.50;97.30;;;;;;4989864;28;20208;-88
2022/03/30 05:01:49;;;;;;;21.27;4.50;;;4.50;97.30;;;;;;5005036;28;20186;-89
2022/03/30 05:04:15;;;;;;;13.53;4.60;;;4.40;97.30;;;;;;5006135;28;20205;-87
2022/03/30 05:06:40;;;;;;;14.13;4.60;;;4.40;97.30;;;;;;5006035;28;20186;-88
2022/03/30 05:09:06;;;;;;;22.10;4.83;;;4.40;97.30;;;;;;5006021;28;20201;-88
2022/03/30 05:11:31;;;;;;;13.00;4.50;;;4.40;97.30;;;;;;5005811;28;20301;-89
2022/03/30 05:13:57;;;;;;;10.03;4.20;;;4.40;97.30;;;;;;5009004;28;20177;-89
2022/03/30 05:16:23;;;;;;;8.57;4.03;;;4.40;97.30;;;;;;5008788;28;20205;-89
2022/03/30 05:18:48;;;;;;;12.10;3.87;;;4.40;97.30;;;;;;5008847;28;20228;-88
2022/03/30 05:21:14;;;;;;;22.30;4.57;;;4.40;97.30;;;;;;5008919;28;20272;-89
2022/03/30 05:23:39;;;;;;;9.87;4.20;;;4.40;97.30;;;;;;4991327;28;20272;-88
2022/03/30 05:26:05;;;;;;;7.80;3.90;;;4.40;97.30;;;;;;4989734;28;20425;-89
2022/03/30 05:28:31;;;;;;;15.20;4.27;;;4.40;97.30;;;;;;4989702;28;20209;-89
2022/03/30 05:30:57;;;;;;;10.13;4.07;;;4.40;97.30;;;;;;4989084;28;20608;-88
2022/03/30 05:33:22;;;;;;;9.00;4.17;;;4.40;97.30;;;;;;4989496;28;20447;-88
2022/03/30 05:35:50;;;;;;;11.33;4.23;;;4.40;97.30;;;;;;4987251;28;20212;-88
2022/03/30 05:38:16;;;;;;;15.23;4.17;;;4.40;97.30;;;;;;4999418;28;20301;-88
2022/03/30 05:40:41;;;;;;;9.43;5.30;;;4.40;97.30;;;;;;5008606;28;20419;-88
2022/03/30 05:43:07;;;;;;;18.50;4.70;;;4.50;97.30;;;;;;4989796;28;20792;-89
2022/03/30 05:45:32;;;;;;;15.60;4.57;;;4.50;97.30;;;;;;4977567;28;20230;-88
2022/03/30 05:47:59;;;;;;;11.00;4.10;;;4.50;97.30;;;;;;4979823;28;20187;-88
2022/03/30 05:50:25;;;;;;;16.03;4.63;;;4.50;97.30;;;;;;4985431;28;20602;-89
2022/03/30 05:52:51;;;;;;;20.10;4.50;;;4.60;97.30;;;;;;4988370;28;20508;-88
2022/03/30 05:55:17;;;;;;;13.73;4.50;;;4.60;97.30;;;;;;4988894;28;20502;-89
2022/03/30 05:57:42;;;;;;;11.70;4.70;;;4.60;97.30;;;;;;4988672;28;20417;-88
2022/03/30 06:00:10;;;;;;;16.90;4.20;;;4.70;97.30;;;;;;4988568;28;20232;-88
2022/03/30 06:02:37;;;;;;;8.07;4.00;;;4.70;97.30;;;;;;4988751;28;20612;-88
2022/03/30 06:05:03;;;;;;;9.20;4.10;;;4.70;97.30;;;;;;4989835;28;20405;-88
2022/03/30 06:07:29;;;;;;;9.90;3.80;;;4.70;97.30;;;;;;4989924;28;20440;-88
2022/03/30 06:09:55;;;;;;;14.40;4.80;;;4.70;97.30;;;;;;4988531;28;20453;-88
2022/03/30 06:12:23;;;;;;;14.27;4.00;;;4.70;97.30;;;;;;4986323;28;20217;-89
2022/03/30 06:14:49;;;;;;;11.60;4.33;;;4.70;97.30;;;;;;4988705;28;20599;-88
2022/03/30 06:17:15;;;;;;;12.23;3.90;;;4.70;97.30;;;;;;4970301;28;20567;-88
2022/03/30 06:19:40;;;;;;;13.53;4.33;;;4.60;97.30;;;;;;4981861;28;20311;-89
2022/03/30 06:22:08;;;;;;;12.80;4.17;;;4.70;97.30;;;;;;5012260;28;20521;-88
2022/03/30 06:24:38;;;;;;;13.73;4.43;;;4.70;97.30;;;;;;4993749;28;20177;-88
2022/03/30 06:27:06;;;;;;;13.67;4.37;;;4.70;97.30;;;;;;5009091;28;20775;-88
2022/03/30 06:29:35;;;;;;;13.43;3.97;;;4.80;97.30;;;;;;4998193;28;20445;-88
2022/03/30 06:32:02;;;;;;;18.03;5.07;;;4.80;97.30;;;;;;5012995;28;20508;-88
2022/03/30 06:34:27;;;;;;;15.70;4.50;;;4.80;97.30;;;;;;5008058;28;21024;-88
2022/03/30 06:36:53;;;;;;;10.97;3.97;;;4.80;97.30;;;;;;4992779;28;20555;-88
2022/03/30 06:39:19;;;;;;;17.63;3.87;;;4.80;97.30;;;;;;5009627;28;20297;-89
2022/03/30 06:41:44;;;;;;;12.43;4.90;;;4.80;97.30;;;;;;5008992;28;20451;-90
2022/03/30 06:44:10;;;;;;;14.43;4.30;;;4.90;97.30;;;;;;5003367;28;20421;-88
2022/03/30 06:46:38;;;;;;;9.90;4.30;;;4.90;97.30;;;;;;5002232;28;20189;-87
2022/03/30 06:49:09;;;;;;;15.13;4.90;;;4.90;97.30;;;;;;5001911;28;20618;-87
2022/03/30 06:51:36;;;;;;;14.20;4.47;;;5.00;97.30;;;;;;4994197;28;20951;-87
2022/03/30 06:54:01;;;;;;;12.40;3.57;;;5.00;97.30;;;;;;4970315;28;20512;-88
2022/03/30 06:56:27;;;;;;;16.30;4.87;;;5.00;97.30;;;;;;4969327;28;20612;-87
2022/03/30 06:58:53;;;;;;;11.00;6.20;;;5.10;97.30;;;;;;4969169;28;20919;-88
2022/03/30 07:01:18;;;;;;;10.37;3.40;;;5.10;97.30;;;;;;4969133;28;20748;-88
2022/03/30 07:03:44;;;;;;;10.53;3.80;;;5.10;97.30;;;;;;4969108;28;20182;-89
2022/03/30 07:06:10;;;;;;;14.93;4.13;;;5.10;97.30;;;;;;4977945;28;20200;-88
2022/03/30 07:11:19;;;;;;;12.23;4.47;;;5.10;97.30;;;;;;4987376;28;20279;-89
2022/03/30 07:13:45;;;;;;;9.50;3.40;;;5.10;97.30;;;;;;4988436;28;20479;-89
2022/03/30 07:16:11;;;;;;;15.77;4.10;;;5.10;97.30;;;;;;5007632;28;20687;-90
2022/03/30 07:18:37;;;;;;;7.20;2.80;;;5.10;97.30;;;;;;5007175;28;20220;-89
2022/03/30 07:21:03;;;;;;;8.70;4.13;;;5.10;97.30;;;;;;5007829;28;20746;-89
2022/03/30 07:23:28;;;;;;;13.53;3.57;;;5.10;97.30;;;;;;4990553;28;20424;-89
2022/03/30 07:25:54;;;;;;;12.67;4.20;;;5.20;97.30;;;;;;4991709;28;20421;-90
2022/03/30 07:28:20;;;;;;;14.40;3.80;;;5.30;97.30;;;;;;4991330;28;20197;-89
2022/03/30 07:30:48;;;;;;;13.33;4.30;;;5.40;97.30;;;;;;4992215;28;20637;-89
2022/03/30 07:33:15;;;;;;;10.73;4.27;;;5.50;97.30;;;;;;4991635;28;20273;-89
2022/03/30 07:35:46;;;;;;;19.43;6.90;;;5.60;97.30;;;;;;4991394;28;20511;-91
2022/03/30 07:38:15;;;;;;;15.03;4.40;;;5.70;97.30;;;;;;4991423;28;20935;-89
2022/03/30 07:40:42;;;;;;;7.60;3.30;;;5.90;97.30;;;;;;5007764;28;20419;-89
2022/03/30 07:43:09;;;;;;;11.70;4.30;;;5.90;97.30;;;;;;4991683;28;20421;-87
2022/03/30 07:45:35;;;;;;;8.90;4.30;;;6.00;97.30;;;;;;5008356;28;20519;-89
2022/03/30 07:48:00;;;;;;;21.77;5.80;;;6.10;97.30;;;;;;4991448;28;20425;-89
2022/03/30 07:50:26;;;;;;;17.03;4.80;;;6.10;97.00;;;;;;4991740;28;20468;-89
2022/03/30 07:52:52;;;;;;;8.53;4.10;;;6.20;95.50;;;;;;4992898;28;20186;-86
2022/03/30 07:55:18;;;;;;;19.43;6.63;;;6.20;94.60;;;;;;4991362;28;20463;-89
2022/03/30 07:57:44;;;;;;;16.77;3.87;;;6.30;94.60;;;;;;4991741;28;20260;-88
2022/03/30 08:00:12;;;;;;;7.30;3.60;;;6.30;94.30;;;;;;4991305;28;20943;-87
2022/03/30 08:02:38;;;;;;;12.63;4.43;;;6.30;94.10;;;;;;4991411;28;20472;-85
2022/03/30 08:05:04;;;;;;;14.03;5.00;;;6.40;94.40;;;;;;5007509;28;20425;-87
2022/03/30 08:07:30;;;;;;;10.70;5.07;;;6.50;95.00;;;;;;4991258;28;20787;-89
2022/03/30 08:09:56;;;;;;;14.40;4.30;;;6.60;94.40;;;;;;4990900;28;20479;-87
2022/03/30 08:12:22;;;;;;;9.57;3.93;;;6.70;94.30;;;;;;5007557;28;20432;-87
2022/03/30 08:14:48;;;;;;;8.77;4.47;;;6.80;94.30;;;;;;5001031;28;20931;-87
2022/03/30 08:17:14;;;;;;;10.80;4.20;;;6.80;94.00;;;;;;5027162;28;21045;-87
2022/03/30 08:19:40;;;;;;;11.50;3.30;;;6.80;93.30;;;;;;5011717;28;20475;-87
2022/03/30 08:24:55;;;;;;;9.70;3.70;;;6.80;93.40;;;;;;4992528;28;20412;-87
2022/03/30 08:27:22;;;;;;;16.83;4.63;;;6.90;93.10;;;;;;4991255;28;20424;-87
2022/03/30 08:29:49;;;;;;;8.93;3.23;;;6.90;93.00;;;;;;4992553;28;20437;-87
2022/03/30 08:32:16;;;;;;;11.93;4.20;;;7.00;92.90;;;;;;4990973;28;20421;-87
2022/03/30 08:34:43;;;;;;;14.10;4.80;;;7.00;91.50;;;;;;4990616;28;20452;-87
2022/03/30 08:37:10;;;;;;;8.00;3.53;;;7.00;91.70;;;;;;4990795;28;20890;-87
2022/03/30 08:39:36;;;;;;;9.67;3.73;;;7.10;91.80;;;;;;4991067;28;20464;-87
2022/03/30 08:42:05;;;;;;;7.57;3.30;;;7.10;90.70;;;;;;4990947;28;20428;-86
2022/03/30 08:44:32;;;;;;;10.17;4.03;;;7.10;90.80;;;;;;4990759;28;20174;-87
2022/03/30 08:46:58;;;;;;;11.67;3.80;;;7.10;90.40;;;;;;4990673;28;20421;-86
2022/03/30 08:49:26;;;;;;;19.83;4.50;;;7.10;90.30;;;;;;5006793;28;20437;-87
2022/03/30 08:51:52;;;;;;;37.13;11.83;;;7.20;91.00;;;;;;4990719;28;20536;-87
2022/03/30 08:54:19;;;;;;;23.23;8.27;;;7.30;90.50;;;;;;4990079;28;20419;-87
2022/03/30 08:56:45;;;;;;;12.53;5.00;;;7.40;90.70;;;;;;4990318;28;20576;-87
2022/03/30 08:59:15;;;;;;;15.17;4.40;;;7.50;91.10;;;;;;4990232;28;20457;-87
2022/03/30 09:01:41;;;;;;;21.73;3.83;;;7.60;89.90;;;;;;4990167;28;20425;-87
2022/03/30 09:04:11;;;;;;;10.83;5.43;;;7.60;90.10;;;;;;4990212;28;20427;-87
2022/03/30 09:06:39;;;;;;;10.73;3.97;;;7.60;90.70;;;;;;4990125;28;20181;-87
2022/03/30 09:09:06;;;;;;;15.07;5.03;;;7.70;90.50;;;;;;4990176;28;20722;-87
2022/03/30 09:11:53;;;;;;;14.33;4.80;;;7.70;90.40;;;;;;4991671;28;20416;-87
2022/03/30 09:14:20;;;;;;;11.17;4.40;;;7.80;90.90;;;;;;4995963;28;20510;-87
2022/03/30 09:16:55;;;;;;;11.13;4.40;;;7.90;90.00;;;;;;5025759;28;20495;-87
2022/03/30 09:19:21;;;;;;;7.47;3.80;;;7.90;89.40;;;;;;5010679;28;20478;-87
2022/03/30 09:21:55;;;;;;;10.00;3.90;;;8.00;90.00;;;;;;5010670;28;20416;-87
2022/03/30 09:24:22;;;;;;;11.00;3.80;;;8.00;89.10;;;;;;5010950;28;20408;-87
2022/03/30 09:26:50;;;;;;;20.20;6.20;;;8.10;89.30;;;;;;5010917;28;20416;-87
2022/03/30 09:29:22;;;;;;;15.30;4.10;;;8.10;89.10;;;;;;5025538;28;20962;-86
2022/03/30 09:31:49;;;;;;;12.07;3.60;;;8.10;88.90;;;;;;5025867;28;20632;-87
2022/03/30 09:34:15;;;;;;;13.33;3.60;;;8.20;89.30;;;;;;5026278;28;20610;-85
2022/03/30 09:36:42;;;;;;;13.37;3.50;;;8.20;88.50;;;;;;5025960;28;20499;-87
2022/03/30 09:39:26;;;;;;;12.30;3.97;;;8.20;88.80;;;;;;5025400;28;20590;-87
2022/03/30 09:41:53;;;;;;;20.07;4.20;;;8.40;89.40;;;;;;5025834;28;20448;-87
2022/03/30 09:44:20;;;;;;;8.40;4.00;;;8.50;89.00;;;;;;5025552;28;20408;-87
2022/03/30 09:46:57;;;;;;;9.00;3.57;;;8.50;88.40;;;;;;5024732;28;20447;-86
2022/03/30 09:49:37;;;;;;;11.87;4.07;;;8.50;88.60;;;;;;5025599;28;20653;-87
2022/03/30 09:52:14;;;;;;;10.97;4.10;;;8.60;88.30;;;;;;5025759;28;20491;-87
2022/03/30 09:54:41;;;;;;;9.20;3.70;;;8.60;88.70;;;;;;5025100;28;20428;-87
2022/03/30 09:57:15;;;;;;;15.07;4.60;;;8.70;88.80;;;;;;5010582;28;20491;-86
2022/03/30 10:00:10;;;;;;;17.70;4.50;;;8.80;88.60;;;;;;5025049;28;20472;-87
2022/03/30 10:02:46;;;;;;;22.53;4.20;;;8.80;87.70;;;;;;5024873;28;20417;-88
2022/03/30 10:05:15;;;;;;;8.03;4.10;;;8.90;88.40;;;;;;5009798;28;20458;-86
2022/03/30 10:07:41;;;;;;;17.00;4.83;;;9.00;88.50;;;;;;5025190;28;20534;-87
2022/03/30 10:10:10;;;;;;;19.73;4.20;;;9.00;88.10;;;;;;5024746;28;20436;-87
2022/03/30 10:12:36;;;;;;;9.03;4.10;;;9.10;87.50;;;;;;5025380;28;20515;-87
2022/03/30 10:15:02;;;;;;;11.43;4.20;;;9.10;87.40;;;;;;5024843;28;20503;-87
2022/03/30 10:17:31;;;;;;;9.30;4.37;;;9.10;88.00;;;;;;5025025;28;20424;-86
2022/03/30 10:19:58;;;;;;;7.87;3.57;;;9.20;87.50;;;;;;5024788;28;20938;-86
2022/03/30 10:23:00;;;;;;;11.43;4.67;;;9.40;87.80;;;;;;5001467;28;20420;-87
2022/03/30 10:25:36;;;;;;;15.33;3.97;;;9.60;88.00;;;;;;4990459;28;20409;-88
2022/03/30 10:28:07;;;;;;;14.53;4.20;;;9.70;86.50;;;;;;4988659;28;20870;-87
2022/03/30 10:30:33;;;;;;;16.60;4.80;;;9.70;86.60;;;;;;4988464;28;20424;-86
2022/03/30 10:33:01;;;;;;;8.50;4.17;;;9.70;85.50;;;;;;4990041;28;20475;-87
2022/03/30 10:35:46;;;;;;;9.80;4.30;;;9.60;85.20;;;;;;4988529;28;20554;-88
2022/03/30 10:38:12;;;;;;;15.33;4.90;;;9.60;86.60;;;;;;4988672;28;20487;-87
2022/03/30 10:40:40;;;;;;;13.80;4.00;;;9.60;85.90;;;;;;4988537;28;20468;-88
2022/03/30 10:43:11;;;;;;;9.83;4.03;;;9.50;85.10;;;;;;4989007;28;20628;-89
2022/03/30 10:45:41;;;;;;;17.57;6.90;;;9.60;85.70;;;;;;4988271;28;20448;-88
2022/03/30 10:48:18;;;;;;;9.23;4.10;;;9.60;85.80;;;;;;4988564;28;20417;-89
2022/03/30 10:50:52;;;;;;;19.00;4.60;;;9.60;86.10;;;;;;4988454;28;20472;-87
2022/03/30 10:53:38;;;;;;;14.73;5.10;;;9.50;84.40;;;;;;4988613;28;20923;-87
2022/03/30 10:56:15;;;;;;;16.57;4.93;;;9.50;84.40;;;;;;4988402;28;20461;-88
2022/03/30 10:58:49;;;;;;;21.43;4.93;;;9.50;85.00;;;;;;4990819;28;20424;-88
2022/03/30 11:01:32;;;;;;;16.93;4.83;;;9.60;85.00;;;;;;4992325;28;20764;-87
2022/03/30 11:04:03;;;;;;;12.10;5.07;;;9.50;85.10;;;;;;4992517;28;20456;-87
2022/03/30 11:06:31;;;;;;;12.30;4.80;;;9.60;85.40;;;;;;4992192;28;20998;-87
2022/03/30 11:09:02;;;;;;;14.30;4.90;;;9.60;85.60;;;;;;4992196;28;20441;-87
2022/03/30 11:11:39;;;;;;;19.07;4.87;;;9.70;85.60;;;;;;4991885;28;20429;-88
2022/03/30 11:14:26;;;;;;;14.17;4.90;;;9.80;85.80;;;;;;4996039;28;20423;-88
2022/03/30 11:16:54;;;;;;;18.80;5.37;;;9.90;86.10;;;;;;5011596;28;20540;-88
2022/03/30 11:19:22;;;;;;;13.10;4.50;;;9.90;85.40;;;;;;5011124;28;20571;-87
2022/03/30 11:22:15;;;;;;;20.93;6.60;;;9.90;85.70;;;;;;5008079;28;20484;-87
2022/03/30 11:24:43;;;;;;;18.50;5.33;;;9.90;85.50;;;;;;5005222;28;20822;-88
2022/03/30 11:27:08;;;;;;;14.80;5.20;;;9.80;85.30;;;;;;4991856;28;20421;-87
2022/03/30 11:29:40;;;;;;;17.27;6.40;;;9.80;85.30;;;;;;4991882;28;20451;-87
2022/03/30 11:32:23;;;;;;;13.37;4.83;;;9.80;85.20;;;;;;4991889;28;20719;-87
2022/03/30 11:34:54;;;;;;;14.07;5.30;;;9.70;85.30;;;;;;4991396;28;20433;-87
2022/03/30 11:37:25;;;;;;;20.73;5.23;;;9.60;85.90;;;;;;4991660;28;20897;-87
2022/03/30 11:39:51;;;;;;;13.30;5.57;;;9.60;85.80;;;;;;4991468;28;20437;-87
2022/03/30 11:42:19;;;;;;;17.87;5.60;;;9.60;86.00;;;;;;4991869;28;20421;-88
2022/03/30 11:47:32;;;;;;;16.67;5.13;;;9.40;88.00;;;;;;4993228;28;20974;-88
2022/03/30 11:49:59;;;;;;;20.13;5.53;;;9.20;89.20;;;;;;4991693;28;20476;-88
2022/03/30 11:52:25;;;;;;;18.00;4.87;;;9.00;89.90;;;;;;4991593;28;20799;-89
2022/03/30 11:54:52;;;;;;;11.70;5.17;;;8.90;90.70;;;;;;5007575;28;20417;-87
2022/03/30 11:57:20;;;;;;;13.00;5.20;;;8.80;90.80;;;;;;4991209;28;20267;-88
2022/03/30 12:00:02;;;;;;;9.03;4.97;;;8.80;91.70;;;;;;4991326;28;20451;-88
2022/03/30 12:02:29;;;;;;;9.47;4.20;;;8.70;91.70;;;;;;4991625;28;20431;-88
2022/03/30 12:04:56;;;;;;;13.47;5.03;;;8.60;92.20;;;;;;4992372;28;20415;-88
2022/03/30 12:07:22;;;;;;;12.10;4.00;;;8.60;92.40;;;;;;4991444;28;20525;-89
2022/03/30 12:09:50;;;;;;;17.20;6.07;;;8.50;92.60;;;;;;4990556;28;20508;-88
2022/03/30 12:12:31;;;;;;;12.70;4.70;;;8.50;92.10;;;;;;4992543;28;20892;-89
2022/03/30 12:15:02;;;;;;;13.30;4.90;;;8.50;93.00;;;;;;5001749;28;21030;-87
2022/03/30 12:17:28;;;;;;;17.57;5.50;;;8.50;93.90;;;;;;5010273;28;20506;-88
2022/03/30 12:19:55;;;;;;;18.20;5.60;;;8.50;94.70;;;;;;5009875;28;20865;-87
2022/03/30 12:22:21;;;;;;;20.60;6.13;;;8.40;95.20;;;;;;5002475;28;20453;-87
2022/03/30 12:24:47;;;;;;;20.90;6.40;;;8.40;95.80;;;;;;4990806;28;20692;-87
2022/03/30 12:27:13;;;;;;;17.63;6.37;;;8.40;95.50;;;;;;4990794;28;20502;-88
2022/03/30 12:29:39;;;;;;;18.53;5.80;;;8.30;96.50;;;;;;4990680;28;20437;-88
2022/03/30 12:32:06;;;;;;;15.53;5.63;;;8.20;97.00;;;;;;4990779;28;20440;-86
2022/03/30 12:34:34;;;;;;;20.70;5.90;;;8.20;97.30;;;;;;4990321;28;20892;-89
2022/03/30 12:37:07;;;;;;;13.13;6.77;;;8.30;97.30;;;;;;4990586;28;21025;-88
2022/03/30 12:39:44;;;;;;;12.10;5.40;;;8.30;97.30;;;;;;4991983;28;20443;-88
2022/03/30 12:42:12;;;;;;;16.73;5.30;;;8.30;97.30;;;;;;4990555;28;20489;-88
2022/03/30 12:44:46;;;;;;;16.67;5.80;;;8.20;97.00;;;;;;4991580;28;20421;-88
2022/03/30 12:47:29;;;;;;;12.83;5.30;;;8.10;97.30;;;;;;4990541;28;20428;-88
2022/03/30 12:49:57;;;;;;;11.47;4.53;;;8.00;97.30;;;;;;4991834;28;20443;-86
2022/03/30 12:52:32;;;;;;;20.77;5.97;;;8.00;97.30;;;;;;5007026;28;20421;-86
2022/03/30 12:55:11;;;;;;;18.10;5.40;;;7.80;97.30;;;;;;4990312;28;20456;-85
2022/03/30 12:57:47;;;;;;;12.90;5.63;;;7.80;97.30;;;;;;5007020;28;20432;-88
2022/03/30 13:00:15;;;;;;;21.40;6.53;;;7.70;97.30;;;;;;5019869;23;20504;-82
2022/03/30 13:02:40;;;;;;;20.40;6.50;;;7.60;97.30;;;;;;5016320;28;20420;-82
2022/03/30 13:05:08;;;;;;;13.07;5.73;;;7.50;97.30;;;;;;5030979;28;20975;-83